Currently 77°F in Simi Valley, California, USA
77°F
80°F / 58°F
14 mph NE
0.00"
Saturday, October 21, 2017 5:53 PM PDT

Simi Valley, California Climate Summary
Typical October Day

Normal High:    81.4°F (27.4°C)
Normal Low:    56.2°F (13.4°C)
Average:    67.4°F (19.6°C)

Hour    Temperature    Wind Speed    Humidity
12:00 AM    61°F (16°C)    3 mph    63%
1:00 AM    61°F (16°C)    3 mph    63%
2:00 AM    60°F (16°C)    3 mph    63%
3:00 AM    60°F (16°C)    3 mph    64%
4:00 AM    59°F (15°C)    3 mph    64%
5:00 AM    59°F (15°C)    3 mph    65%
6:00 AM    59°F (15°C)    3 mph    65%
7:00 AM    59°F (15°C)    3 mph    66%
8:00 AM    60°F (15°C)    3 mph    65%
9:00 AM    64°F (18°C)    3 mph    62%
10:00 AM    70°F (21°C)    4 mph    54%
11:00 AM    75°F (24°C)    5 mph    46%
12:00 PM    78°F (25°C)    5 mph    41%
1:00 PM    79°F (26°C)    6 mph    38%
2:00 PM    80°F (27°C)    7 mph    38%
3:00 PM    79°F (26°C)    7 mph    40%
4:00 PM    78°F (26°C)    7 mph    42%
5:00 PM    76°F (24°C)    6 mph    45%
6:00 PM    73°F (23°C)    5 mph    50%
7:00 PM    70°F (21°C)    3 mph    56%
8:00 PM    67°F (19°C)    2 mph    59%
9:00 PM    65°F (18°C)    2 mph    61%
10:00 PM    63°F (17°C)    3 mph    62%
11:00 PM    62°F (17°C)    3 mph    63%
 

The Simi Valley, California weather pages are a service of WeatherCurrents.
Copyright ©Sat Oct 21 17:54:04 PDT 2017  WeatherCurrents. All rights reserved. - Submit questions and comments - Privacy Policy